createdAt,value
2023-06-07T00:01:14.554Z,16.33
2023-06-07T00:06:17.780Z,16.25
2023-06-07T00:11:22.958Z,16.17
2023-06-07T00:16:25.834Z,16.09
2023-06-07T00:21:29.356Z,16.02
2023-06-07T00:26:32.432Z,15.97
2023-06-07T00:31:35.304Z,15.90
2023-06-07T00:36:38.220Z,15.81
2023-06-07T00:41:41.115Z,15.69
2023-06-07T00:46:44.775Z,15.58
2023-06-07T00:51:47.839Z,15.47
2023-06-07T00:56:51.640Z,15.36
2023-06-07T01:01:56.944Z,15.25
2023-06-07T01:07:02.890Z,15.13
2023-06-07T01:12:07.236Z,15.04
2023-06-07T01:17:10.244Z,14.93
2023-06-07T01:22:15.311Z,14.83
2023-06-07T01:27:18.476Z,14.73
2023-06-07T01:32:22.815Z,14.64
2023-06-07T01:37:26.481Z,14.55
2023-06-07T01:42:29.946Z,14.45
2023-06-07T01:47:33.628Z,14.35
2023-06-07T01:52:36.652Z,14.27
2023-06-07T01:57:51.612Z,14.20
2023-06-07T02:03:07.414Z,14.13
2023-06-07T02:08:20.575Z,14.07
2023-06-07T02:13:26.592Z,14.03
2023-06-07T02:18:29.371Z,13.99
2023-06-07T02:23:32.225Z,13.97
2023-06-07T02:28:35.067Z,13.96
2023-06-07T02:33:37.848Z,13.93
2023-06-07T02:38:40.778Z,13.90
2023-06-07T02:43:45.145Z,13.87
2023-06-07T02:48:47.994Z,13.83
2023-06-07T02:53:50.980Z,13.79
2023-06-07T02:58:53.756Z,13.77
2023-06-07T03:03:58.162Z,13.76
2023-06-07T03:09:00.987Z,13.74
2023-06-07T03:14:03.828Z,13.78
2023-06-07T03:19:07.161Z,13.83
2023-06-07T03:24:10.194Z,13.88
2023-06-07T03:29:13.129Z,13.95
2023-06-07T03:34:16.204Z,14.07
2023-06-07T03:39:19.063Z,14.25
2023-06-07T03:44:21.915Z,14.46
2023-06-07T03:49:24.689Z,14.67
2023-06-07T03:54:27.559Z,14.89
2023-06-07T03:59:33.299Z,15.11
2023-06-07T04:04:36.433Z,16.19
2023-06-07T04:09:41.113Z,19.58
2023-06-07T04:14:43.916Z,23.03
2023-06-07T04:19:51.378Z,25.91
2023-06-07T04:24:54.814Z,28.23
2023-06-07T04:29:59.061Z,30.13
2023-06-07T04:35:01.893Z,31.68
2023-06-07T04:40:05.424Z,33.05
2023-06-07T04:45:11.151Z,34.06
2023-06-07T04:50:14.906Z,34.99
2023-06-07T04:55:18.956Z,35.77
2023-06-07T05:00:22.930Z,36.33
2023-06-07T05:05:26.133Z,36.94
2023-06-07T05:10:29.049Z,37.50
2023-06-07T05:15:32.456Z,38.20
2023-06-07T05:20:35.345Z,37.82
2023-06-07T05:25:40.096Z,34.91
2023-06-07T05:30:42.900Z,32.32
2023-06-07T05:35:47.361Z,30.37
2023-06-07T05:40:50.860Z,28.83
2023-06-07T05:45:53.817Z,27.77
2023-06-07T05:50:58.279Z,26.91
2023-06-07T05:56:01.197Z,26.40
2023-06-07T06:01:06.755Z,25.96
2023-06-07T06:06:17.475Z,25.52
2023-06-07T06:11:21.092Z,25.24
2023-06-07T06:16:24.123Z,25.06
2023-06-07T06:21:27.601Z,25.02
2023-06-07T06:26:34.189Z,25.03
2023-06-07T06:31:37.196Z,25.11
2023-06-07T06:36:59.795Z,25.29
2023-06-07T06:42:12.643Z,25.65
2023-06-07T06:47:16.200Z,27.43
2023-06-07T06:52:19.026Z,30.86
2023-06-07T06:57:26.256Z,33.70
2023-06-07T07:02:32.497Z,35.85
2023-06-07T07:07:41.956Z,37.50
2023-06-07T07:12:44.854Z,38.72
2023-06-07T07:17:49.547Z,39.62
2023-06-07T07:22:53.071Z,40.48
2023-06-07T07:28:04.103Z,41.10
2023-06-07T07:33:07.533Z,41.22
2023-06-07T07:38:10.588Z,41.79
2023-06-07T07:43:16.951Z,42.24
2023-06-07T07:48:19.844Z,42.55
2023-06-07T07:53:22.882Z,42.67
2023-06-07T07:58:34.077Z,42.72
2023-06-07T08:03:37.193Z,42.81
2023-06-07T08:08:41.292Z,42.75
2023-06-07T08:13:45.523Z,42.66
2023-06-07T08:18:56.691Z,42.57
2023-06-07T08:24:00.593Z,42.44
2023-06-07T08:29:05.162Z,42.33
2023-06-07T08:34:10.158Z,42.16
2023-06-07T08:39:13.845Z,41.78
2023-06-07T08:44:16.947Z,41.15
2023-06-07T08:49:23.873Z,40.40
2023-06-07T08:54:29.037Z,39.43
2023-06-07T08:59:32.666Z,37.17
2023-06-07T09:04:36.131Z,36.08
2023-06-07T09:09:45.254Z,36.56
2023-06-07T09:14:48.256Z,36.83
2023-06-07T09:19:53.762Z,36.81
2023-06-07T09:24:56.808Z,36.94
2023-06-07T09:30:07.039Z,35.96
2023-06-07T09:35:15.066Z,33.83
2023-06-07T09:40:19.815Z,32.46
2023-06-07T09:45:26.949Z,31.75
2023-06-07T09:50:31.195Z,30.97
2023-06-07T09:55:35.985Z,30.48
2023-06-07T10:00:43.542Z,30.03
2023-06-07T10:05:47.224Z,29.80
2023-06-07T10:10:53.831Z,29.61
2023-06-07T10:16:00.043Z,29.28
2023-06-07T10:21:27.461Z,29.40
2023-06-07T10:26:36.527Z,29.79
2023-06-07T10:31:53.072Z,30.20
2023-06-07T10:36:59.628Z,30.51
2023-06-07T10:42:02.679Z,30.70
2023-06-07T10:47:23.770Z,30.69
2023-06-07T10:52:28.001Z,30.52
2023-06-07T10:57:39.687Z,30.26
2023-06-07T11:02:45.500Z,30.04
2023-06-07T11:07:52.149Z,29.98
2023-06-07T11:12:56.320Z,29.76
2023-06-07T11:18:05.126Z,29.59
2023-06-07T11:23:30.676Z,29.57
2023-06-07T11:28:40.342Z,29.67
2023-06-07T11:33:45.990Z,29.84
2023-06-07T11:38:53.229Z,29.93
2023-06-07T11:43:57.935Z,29.94
2023-06-07T11:49:13.511Z,29.84
2023-06-07T11:54:16.742Z,29.69
2023-06-07T11:59:22.699Z,29.53
2023-06-07T12:04:26.521Z,29.26
2023-06-07T12:09:30.147Z,29.05
2023-06-07T12:14:35.319Z,28.85
2023-06-07T12:19:38.935Z,28.36
2023-06-07T12:24:42.551Z,28.06
2023-06-07T12:29:45.972Z,27.85
2023-06-07T12:34:50.297Z,27.78
2023-06-07T12:39:53.579Z,27.83
2023-06-07T12:44:56.845Z,27.97
2023-06-07T12:49:59.902Z,28.27
2023-06-07T12:55:03.061Z,28.62
2023-06-07T13:00:07.203Z,28.73
2023-06-07T13:05:14.186Z,28.60
2023-06-07T13:10:17.382Z,28.31
2023-06-07T13:15:20.272Z,28.09
2023-06-07T13:20:25.427Z,27.82
2023-06-07T13:25:28.450Z,27.56
2023-06-07T13:30:32.791Z,27.45
2023-06-07T13:35:37.955Z,27.60
2023-06-07T13:40:43.932Z,27.89
2023-06-07T13:45:46.958Z,28.10
2023-06-07T13:50:52.997Z,28.22
2023-06-07T13:55:56.151Z,28.23
2023-06-07T14:01:03.999Z,28.18
2023-06-07T14:06:07.454Z,28.18
2023-06-07T14:11:10.511Z,28.18
2023-06-07T14:16:13.835Z,28.14
2023-06-07T14:21:16.954Z,28.05
2023-06-07T14:26:20.970Z,28.06
2023-06-07T14:31:24.070Z,28.06
2023-06-07T14:36:26.940Z,28.07
2023-06-07T14:41:29.773Z,28.15
2023-06-07T14:46:32.747Z,28.21
2023-06-07T14:51:36.299Z,28.12
2023-06-07T14:56:39.260Z,28.00
2023-06-07T15:01:42.620Z,27.94
2023-06-07T15:06:46.508Z,27.82
2023-06-07T15:11:50.092Z,27.80
2023-06-07T15:16:54.929Z,27.71
2023-06-07T15:21:59.805Z,27.64
2023-06-07T15:27:02.838Z,27.55
2023-06-07T15:32:06.437Z,27.52
2023-06-07T15:37:10.708Z,27.49
2023-06-07T15:42:15.070Z,27.48
2023-06-07T15:47:18.412Z,27.43
2023-06-07T15:52:21.394Z,27.35
2023-06-07T15:57:24.521Z,27.34
2023-06-07T16:02:27.483Z,27.36
2023-06-07T16:07:30.426Z,27.29
2023-06-07T16:12:33.674Z,27.20
2023-06-07T16:17:39.362Z,27.09
2023-06-07T16:22:44.822Z,27.04
2023-06-07T16:27:47.945Z,26.92
2023-06-07T16:32:50.878Z,26.85
2023-06-07T16:37:54.003Z,26.80
2023-06-07T16:42:56.845Z,26.71
2023-06-07T16:47:59.738Z,26.54
2023-06-07T16:53:03.194Z,26.40
2023-06-07T16:58:07.637Z,26.30
2023-06-07T17:03:10.952Z,26.16
2023-06-07T17:08:14.580Z,26.06
2023-06-07T17:13:17.472Z,25.95
2023-06-07T17:18:22.116Z,25.88
2023-06-07T17:23:25.242Z,25.83
2023-06-07T17:28:30.579Z,25.78
2023-06-07T17:33:33.448Z,25.75
2023-06-07T17:38:36.505Z,25.70
2023-06-07T17:43:39.512Z,25.58
2023-06-07T17:48:42.469Z,25.51
2023-06-07T17:53:45.925Z,25.40
2023-06-07T17:58:48.880Z,25.29
2023-06-07T18:03:57.875Z,25.16
2023-06-07T18:09:01.184Z,25.00
2023-06-07T18:14:04.077Z,24.84
2023-06-07T18:19:07.280Z,24.67
2023-06-07T18:24:12.552Z,24.42
2023-06-07T18:29:17.802Z,24.17
2023-06-07T18:34:20.829Z,23.99
2023-06-07T18:39:24.117Z,23.80
2023-06-07T18:44:27.066Z,23.58
2023-06-07T18:49:30.041Z,23.38
2023-06-07T18:54:33.140Z,23.21
2023-06-07T18:59:36.069Z,23.03
2023-06-07T19:04:48.501Z,22.86
2023-06-07T19:09:56.342Z,22.67
2023-06-07T19:14:59.359Z,22.49
2023-06-07T19:20:02.292Z,22.32
2023-06-07T19:25:06.400Z,22.16
2023-06-07T19:30:10.404Z,22.00
2023-06-07T19:35:13.885Z,21.84
2023-06-07T19:40:18.582Z,21.69
2023-06-07T19:45:22.638Z,21.56
2023-06-07T19:50:25.790Z,21.41
2023-06-07T19:55:28.708Z,21.28
2023-06-07T20:00:31.957Z,21.14
2023-06-07T20:05:35.527Z,21.01
2023-06-07T20:10:38.438Z,20.88
2023-06-07T20:15:41.332Z,20.76
2023-06-07T20:20:44.151Z,20.65
2023-06-07T20:25:47.174Z,20.53
2023-06-07T20:30:50.062Z,20.42
2023-06-07T20:35:53.537Z,20.30
2023-06-07T20:40:56.342Z,20.19
2023-06-07T20:45:59.483Z,20.08
2023-06-07T20:51:02.518Z,19.97
2023-06-07T20:56:05.528Z,19.85
2023-06-07T21:01:09.259Z,19.75
2023-06-07T21:06:13.514Z,19.65
2023-06-07T21:11:16.912Z,19.57
2023-06-07T21:16:19.920Z,19.48
2023-06-07T21:21:23.561Z,19.38
2023-06-07T21:26:27.473Z,19.27
2023-06-07T21:31:30.527Z,19.15
2023-06-07T21:36:33.565Z,19.03
2023-06-07T21:41:36.587Z,18.93
2023-06-07T21:46:39.512Z,18.84
2023-06-07T21:51:42.447Z,18.75
2023-06-07T21:56:45.630Z,18.64
2023-06-07T22:01:48.537Z,18.53
2023-06-07T22:06:51.406Z,18.43
2023-06-07T22:11:55.671Z,18.33
2023-06-07T22:17:01.775Z,18.24
2023-06-07T22:22:04.899Z,18.14
2023-06-07T22:27:10.339Z,18.06
2023-06-07T22:32:15.525Z,17.98
2023-06-07T22:37:22.085Z,17.88
2023-06-07T22:42:24.959Z,17.77
2023-06-07T22:47:31.386Z,17.66
2023-06-07T22:52:36.183Z,17.59
2023-06-07T22:57:39.227Z,17.55
2023-06-07T23:02:42.227Z,17.51
2023-06-07T23:07:45.253Z,17.49
2023-06-07T23:12:48.131Z,17.47
2023-06-07T23:17:54.193Z,17.46
2023-06-07T23:22:57.223Z,17.43
2023-06-07T23:28:00.154Z,17.40
2023-06-07T23:33:04.189Z,17.36
2023-06-07T23:38:07.205Z,17.32
2023-06-07T23:43:10.098Z,17.25
2023-06-07T23:48:13.334Z,17.18
2023-06-07T23:53:16.253Z,17.09
2023-06-07T23:58:19.420Z,16.98
